Time;durP1;ratioP1;P1;durP2;ratioP2;P2;SDS_P1;SDS_P2;PMS_P1;PMS_P2;Temp;Humidity;BMP_temperature;BMP_pressure;BME280_temperature;BME280_humidity;BME280_pressure;Samples;Min_cycle;Max_cycle;Signal;HPM_P1;HPM_P2
2024/04/06 00:08:53;;;;;;;9.30;3.70;;;;;;;12.68;88.00;99068.17;446474;1241;140059;-57
2024/04/06 00:18:56;;;;;;;6.60;2.60;;;;;;;12.59;90.22;99056.22;444322;1240;5107539;-57
2024/04/06 00:28:59;;;;;;;2.70;2.30;;;;;;;12.56;92.11;99076.63;446667;1240;139819;-57
2024/04/06 00:39:03;;;;;;;5.80;2.30;;;;;;;12.52;93.87;99098.95;448245;1236;139539;-57
2024/04/06 00:49:07;;;;;;;4.30;3.30;;;;;;;12.46;95.09;99123.98;447526;1241;139318;-56
2024/04/06 00:59:11;;;;;;;6.90;2.50;;;;;;;12.40;96.08;99125.85;446081;1241;139766;-56
2024/04/06 01:09:14;;;;;;;6.20;3.60;;;;;;;12.35;97.36;99110.96;446937;1241;139677;-53
2024/04/06 01:19:18;;;;;;;5.00;3.30;;;;;;;12.30;98.34;99102.60;449023;1238;139820;-53
2024/04/06 01:29:21;;;;;;;7.80;4.60;;;;;;;12.22;99.38;99114.41;446254;1240;139430;-57
2024/04/06 01:39:25;;;;;;;5.60;4.50;;;;;;;12.11;100.00;99128.45;446470;1240;139709;-57
2024/04/06 01:49:30;;;;;;;2.80;2.60;;;;;;;11.95;100.00;99138.92;446407;1240;140040;-56
2024/04/06 01:59:35;;;;;;;3.50;1.80;;;;;;;11.70;100.00;99150.79;447772;1240;139655;-56
2024/04/06 02:09:39;;;;;;;2.70;1.60;;;;;;;11.51;100.00;99161.70;446823;1240;139374;-63
2024/04/06 02:19:42;;;;;;;1.50;1.10;;;;;;;11.41;100.00;99177.36;448972;1239;139383;-64
2024/04/06 02:29:46;;;;;;;2.00;1.20;;;;;;;11.28;100.00;99193.88;446487;1241;140161;-62
2024/04/06 02:39:49;;;;;;;2.20;1.40;;;;;;;11.17;100.00;99203.23;446367;1238;139410;-52
2024/04/06 02:49:52;;;;;;;1.50;0.80;;;;;;;11.07;100.00;99213.81;446456;1241;139528;-52
2024/04/06 02:59:56;;;;;;;2.70;0.90;;;;;;;10.93;100.00;99233.66;446396;1241;139373;-57
2024/04/06 03:09:59;;;;;;;2.20;0.70;;;;;;;10.79;100.00;99245.17;446025;1240;139830;-57
2024/04/06 03:20:04;;;;;;;1.60;0.90;;;;;;;10.65;100.00;99251.91;446156;1238;139317;-56
2024/04/06 03:30:09;;;;;;;1.40;1.20;;;;;;;10.50;100.00;99259.23;447663;1236;141627;-57
2024/04/06 03:40:13;;;;;;;1.30;1.20;;;;;;;10.34;100.00;99269.72;447294;1240;139976;-62
2024/04/06 03:50:17;;;;;;;2.40;1.30;;;;;;;10.14;100.00;99276.70;446677;1240;139836;-62
2024/04/06 04:00:20;;;;;;;2.80;1.60;;;;;;;9.96;100.00;99283.09;446637;1240;139781;-56
2024/04/06 04:10:24;;;;;;;1.50;1.40;;;;;;;9.76;100.00;99301.54;446207;1239;140182;-57
2024/04/06 04:20:27;;;;;;;1.40;1.20;;;;;;;9.67;100.00;99315.89;446258;1241;139860;-58
2024/04/06 04:30:31;;;;;;;3.60;1.60;;;;;;;9.77;100.00;99319.83;446343;1240;139807;-57
2024/04/06 04:40:36;;;;;;;2.70;2.20;;;;;;;9.99;100.00;99331.55;446897;1240;139254;-63
2024/04/06 04:50:41;;;;;;;3.30;3.00;;;;;;;10.29;100.00;99337.07;448479;1240;140163;-63
2024/04/06 05:00:46;;;;;;;5.10;3.10;;;;;;;10.54;100.00;99358.02;446268;1241;139395;-62
2024/04/06 05:10:50;;;;;;;2.50;2.10;;;;;;;10.72;100.00;99379.76;446849;1241;141838;-62
2024/04/06 05:20:55;;;;;;;3.00;2.50;;;;;;;10.86;100.00;99390.91;446641;1241;140374;-52
2024/04/06 05:30:58;;;;;;;4.10;2.60;;;;;;;11.04;100.00;99392.30;446744;1241;139469;-54
2024/04/06 05:41:02;;;;;;;5.60;2.50;;;;;;;11.18;100.00;99401.14;446662;1241;139828;-57
2024/04/06 05:51:05;;;;;;;3.80;2.50;;;;;;;11.43;100.00;99405.01;446364;1241;139452;-57
2024/04/06 06:01:09;;;;;;;4.30;2.40;;;;;;;11.91;100.00;99423.73;448696;1241;140051;-56
2024/04/06 06:11:14;;;;;;;3.60;2.70;;;;;;;12.53;100.00;99430.48;447139;1241;140432;-57
2024/04/06 06:21:17;;;;;;;5.80;2.30;;;;;;;13.11;100.00;99432.47;446361;1241;139910;-57
2024/04/06 06:31:21;;;;;;;2.10;1.80;;;;;;;13.78;100.00;99434.85;446525;1241;139965;-57
2024/04/06 06:41:26;;;;;;;3.20;1.60;;;;;;;14.84;100.00;99448.23;446100;1238;139990;-57
2024/04/06 06:51:31;;;;;;;3.00;2.10;;;;;;;16.21;99.65;99453.12;446278;1241;139564;-63
2024/04/06 07:01:35;;;;;;;3.40;1.70;;;;;;;16.94;93.42;99463.80;446528;1241;139250;-63
2024/04/06 07:11:41;;;;;;;2.20;1.70;;;;;;;16.58;89.71;99477.32;446330;1241;139575;-57
2024/04/06 07:21:44;;;;;;;4.70;2.10;;;;;;;17.93;92.55;99483.38;446368;1238;139944;-58
2024/04/06 07:31:47;;;;;;;5.20;1.70;;;;;;;22.04;86.20;99489.13;446858;1239;139313;-63
2024/04/06 07:41:51;;;;;;;2.80;1.60;;;;;;;24.21;78.38;99483.31;446732;1240;139489;-63
2024/04/06 07:51:54;;;;;;;3.80;2.00;;;;;;;25.97;69.51;99483.84;446481;1240;140877;-59
2024/04/06 08:01:58;;;;;;;4.90;2.50;;;;;;;26.29;63.81;99475.74;447352;1241;138688;-58
2024/04/06 08:12:01;;;;;;;2.40;1.40;;;;;;;24.33;60.01;99477.84;446638;1241;139286;-58
2024/04/06 08:22:04;;;;;;;5.10;1.80;;;;;;;22.36;61.27;99486.63;446733;1239;138793;-57
2024/04/06 08:32:08;;;;;;;2.20;1.60;;;;;;;21.01;62.73;99478.84;447153;1240;139172;-57
2024/04/06 08:42:16;;;;;;;2.50;1.40;;;;;;;20.10;64.04;99486.52;446328;1241;138676;-56
2024/04/06 08:52:19;;;;;;;6.70;2.10;;;;;;;19.23;65.32;99486.42;447882;1239;138505;-53
2024/04/06 09:02:23;;;;;;;2.70;1.30;;;;;;;18.67;66.91;99502.20;447558;1240;138682;-52
2024/04/06 09:12:28;;;;;;;8.10;1.70;;;;;;;18.80;67.27;99506.48;448002;1240;139625;-57
2024/04/06 09:22:32;;;;;;;3.40;1.20;;;;;;;19.11;66.67;99505.08;447821;1241;139144;-70
2024/04/06 09:32:36;;;;;;;4.50;1.90;;;;;;;18.94;65.37;99504.63;446539;1240;139665;-69
2024/04/06 09:42:40;;;;;;;5.20;1.90;;;;;;;18.69;65.02;99506.07;446956;1241;139581;-61
2024/04/06 09:52:46;;;;;;;5.80;1.70;;;;;;;18.65;65.04;99512.48;448399;1240;140000;-61
2024/04/06 10:02:53;;;;;;;8.40;2.40;;;;;;;18.92;65.29;99510.81;446666;1241;139053;-62
2024/04/06 10:12:57;;;;;;;4.00;2.30;;;;;;;19.06;64.83;99514.38;448335;1238;139541;-60
2024/04/06 10:23:01;;;;;;;10.00;2.80;;;;;;;19.35;64.10;99511.52;446856;1240;139074;-61
2024/04/06 10:33:06;;;;;;;4.10;2.20;;;;;;;19.49;63.53;99515.59;447584;1241;139579;-62
2024/04/06 10:43:09;;;;;;;3.10;1.80;;;;;;;19.92;62.83;99513.16;447557;1236;139125;-60
2024/04/06 10:53:13;;;;;;;4.50;2.60;;;;;;;20.52;62.07;99506.38;446983;1240;139702;-61
2024/04/06 11:03:20;;;;;;;3.20;1.70;;;;;;;20.67;60.57;99499.83;446977;1240;138811;-60
2024/04/06 11:13:24;;;;;;;4.30;2.40;;;;;;;20.45;60.51;99508.67;447306;1238;138555;-60
2024/04/06 11:23:29;;;;;;;2.10;1.40;;;;;;;20.27;60.66;99510.61;447376;1236;139280;-62
2024/04/06 11:33:33;;;;;;;3.40;1.60;;;;;;;20.44;59.67;99512.70;446479;1240;139231;-63
2024/04/06 11:43:36;;;;;;;2.80;0.90;;;;;;;20.60;59.76;99511.67;447398;1238;139809;-57
2024/04/06 11:53:40;;;;;;;2.30;1.50;;;;;;;20.79;59.21;99512.21;449378;1241;138515;-57
2024/04/06 12:03:48;;;;;;;5.70;1.10;;;;;;;20.89;58.69;99511.34;448312;1240;139723;-56
2024/04/06 12:13:55;;;;;;;3.40;1.50;;;;;;;20.96;57.55;99514.46;444751;1237;5116246;-61
2024/04/06 12:23:58;;;;;;;8.20;2.70;;;;;;;20.78;57.19;99510.89;447726;1237;138788;-60
2024/04/06 12:34:01;;;;;;;6.10;2.20;;;;;;;20.51;57.18;99505.25;447020;1240;138589;-60
2024/04/06 12:44:06;;;;;;;4.10;2.40;;;;;;;20.51;57.59;99507.48;448184;1238;138890;-61
2024/04/06 12:54:10;;;;;;;7.50;1.00;;;;;;;20.59;56.95;99507.75;447479;1240;138623;-61
2024/04/06 13:04:13;;;;;;;4.50;1.70;;;;;;;20.62;56.31;99519.89;446872;1240;139140;-60
2024/04/06 13:14:17;;;;;;;3.90;1.20;;;;;;;21.00;55.87;99514.25;448776;1238;139305;-61
2024/04/06 13:24:22;;;;;;;3.60;1.70;;;;;;;21.24;54.99;99515.23;446624;1240;138498;-61
2024/04/06 13:34:26;;;;;;;1.90;1.00;;;;;;;21.26;54.73;99516.04;447444;1240;139091;-61
2024/04/06 13:44:30;;;;;;;2.90;1.10;;;;;;;21.42;54.45;99517.85;446950;1238;138894;-62
2024/04/06 13:54:37;;;;;;;4.40;1.80;;;;;;;21.39;54.26;99517.32;446872;1240;138598;-62
2024/04/06 14:04:39;;;;;;;;;;;;;;;21.09;54.11;99528.18;446657;1236;139072;-62
2024/04/06 14:14:43;;;;;;;2.50;1.30;;;;;;;20.57;53.96;99531.61;446715;1240;125068;-61
2024/04/06 14:24:46;;;;;;;0.90;0.60;;;;;;;20.30;54.51;99530.52;446270;1240;139477;-62
2024/04/06 14:34:50;;;;;;;2.40;2.00;;;;;;;20.17;54.49;99532.27;447466;1240;138994;-63
2024/04/06 14:44:53;;;;;;;2.10;0.70;;;;;;;20.20;54.43;99531.41;445937;1241;139316;-64
2024/04/06 14:54:58;;;;;;;2.40;2.10;;;;;;;20.28;54.09;99534.61;447574;1236;139584;-64
2024/04/06 15:05:05;;;;;;;3.40;1.30;;;;;;;20.28;54.31;99526.80;447124;1236;139105;-63
2024/04/06 15:15:09;;;;;;;2.80;1.10;;;;;;;20.14;53.69;99535.30;446184;1241;139757;-62
2024/04/06 15:25:12;;;;;;;3.10;1.10;;;;;;;19.79;54.05;99538.87;446490;1241;138505;-58
2024/04/06 15:35:19;;;;;;;3.70;1.60;;;;;;;19.79;54.37;99535.11;446416;1241;138631;-56
2024/04/06 15:45:22;;;;;;;3.30;1.10;;;;;;;19.80;54.44;99534.98;446684;1236;140118;-58
2024/04/06 15:55:26;;;;;;;4.20;1.40;;;;;;;19.84;54.11;99538.97;448330;1236;139051;-58
2024/04/06 16:05:29;;;;;;;3.40;1.10;;;;;;;19.67;53.98;99545.08;447534;1236;138600;-62
2024/04/06 16:15:32;;;;;;;1.90;1.20;;;;;;;19.55;54.46;99546.58;446116;1241;139084;-61
2024/04/06 16:25:35;;;;;;;2.50;1.10;;;;;;;19.26;54.46;99549.10;446567;1240;138490;-57
2024/04/06 16:35:39;;;;;;;3.20;1.80;;;;;;;18.92;55.00;99555.66;446530;1240;139287;-58
2024/04/06 16:45:45;;;;;;;5.60;1.80;;;;;;;18.62;55.58;99565.17;447475;1236;139513;-58
2024/04/06 16:55:48;;;;;;;1.60;1.50;;;;;;;18.21;56.15;99574.51;447007;1240;138839;-58
2024/04/06 17:05:52;;;;;;;2.30;1.40;;;;;;;17.75;57.06;99599.45;446600;1240;140154;-62
2024/04/06 17:15:55;;;;;;;2.60;1.00;;;;;;;17.31;58.26;99606.34;446575;1241;138534;-61
2024/04/06 17:25:58;;;;;;;3.50;1.90;;;;;;;16.85;59.26;99604.65;446644;1240;138499;-62
2024/04/06 17:36:02;;;;;;;13.70;3.30;;;;;;;16.44;60.33;99600.89;446756;1236;139756;-61
2024/04/06 17:46:05;;;;;;;11.70;6.00;;;;;;;16.04;62.01;99602.57;446671;1241;139422;-61
2024/04/06 17:56:08;;;;;;;23.00;11.50;;;;;;;15.64;63.64;99607.33;447017;1236;138720;-61
2024/04/06 18:06:12;;;;;;;19.20;10.30;;;;;;;15.24;65.00;99617.54;446280;1240;138861;-60
2024/04/06 18:16:19;;;;;;;24.20;14.60;;;;;;;14.84;66.48;99631.50;446950;1240;138937;-61
2024/04/06 18:26:23;;;;;;;23.50;13.90;;;;;;;14.46;68.16;99637.69;447646;1240;140036;-62
2024/04/06 18:36:26;;;;;;;24.10;14.70;;;;;;;14.08;69.49;99651.08;447919;1240;139569;-57
2024/04/06 18:46:29;;;;;;;26.20;16.20;;;;;;;13.73;70.74;99650.35;446807;1237;140052;-57
2024/04/06 18:56:33;;;;;;;29.60;19.20;;;;;;;13.45;71.79;99657.90;447021;1240;139595;-62
2024/04/06 19:06:36;;;;;;;30.60;23.00;;;;;;;13.13;72.70;99660.73;447508;1236;140156;-63
2024/04/06 19:16:41;;;;;;;33.70;22.80;;;;;;;12.83;73.83;99669.27;446478;1242;139662;-63
2024/04/06 19:26:44;;;;;;;29.70;19.80;;;;;;;12.56;75.15;99677.98;446535;1241;141020;-63
2024/04/06 19:36:47;;;;;;;32.70;19.10;;;;;;;12.33;76.39;99667.70;446428;1241;139891;-61
2024/04/06 19:46:54;;;;;;;;;;;;;;;12.11;77.40;99670.91;446739;1240;139862;-61
2024/04/06 19:56:57;;;;;;;27.20;18.20;;;;;;;11.89;78.44;99665.88;446793;1240;125634;-58
2024/04/06 20:07:01;;;;;;;31.30;17.50;;;;;;;11.75;79.76;99662.48;448319;1240;140395;-59
2024/04/06 20:17:05;;;;;;;40.80;26.60;;;;;;;11.72;80.74;99662.48;447688;1240;139703;-59
2024/04/06 20:27:08;;;;;;;41.70;29.80;;;;;;;11.64;80.97;99662.52;447101;1241;140207;-58
2024/04/06 20:37:11;;;;;;;35.30;23.90;;;;;;;11.52;81.62;99658.08;446689;1240;140413;-60
2024/04/06 20:47:15;;;;;;;32.00;23.30;;;;;;;11.43;82.46;99668.79;446435;1240;139967;-61
2024/04/06 20:57:18;;;;;;;42.40;28.80;;;;;;;11.34;83.06;99677.78;446296;1238;140986;-60
2024/04/06 21:07:22;;;;;;;39.20;29.20;;;;;;;11.19;83.50;99682.45;446712;1239;139556;-63
2024/04/06 21:17:25;;;;;;;36.10;27.60;;;;;;;11.03;84.05;99689.98;447075;1240;139572;-62
2024/04/06 21:27:30;;;;;;;36.30;27.00;;;;;;;10.96;84.63;99699.20;447530;1240;140457;-68
2024/04/06 21:37:34;;;;;;;32.70;24.50;;;;;;;10.86;85.18;99718.70;446585;1240;140133;-68
2024/04/06 21:47:38;;;;;;;39.90;28.20;;;;;;;10.72;86.03;99719.40;447046;1240;140197;-60
2024/04/06 21:57:42;;;;;;;35.60;26.90;;;;;;;10.58;86.64;99723.59;446490;1239;140155;-61
2024/04/06 22:07:46;;;;;;;36.60;26.00;;;;;;;10.43;86.88;99718.19;446768;1241;139560;-68
2024/04/06 22:17:50;;;;;;;35.30;24.90;;;;;;;10.27;87.14;99716.85;446663;1241;140088;-69
2024/04/06 22:27:53;;;;;;;31.10;22.30;;;;;;;10.08;88.12;99722.19;446716;1241;140165;-69
2024/04/06 22:37:57;;;;;;;30.40;23.70;;;;;;;9.95;89.10;99727.66;448513;1236;140844;-69
2024/04/06 22:48:00;;;;;;;32.50;24.80;;;;;;;9.89;89.70;99733.07;447669;1241;139821;-68
2024/04/06 22:58:05;;;;;;;29.10;21.90;;;;;;;9.80;89.90;99731.16;447825;1241;140731;-69
2024/04/06 23:08:08;;;;;;;30.20;22.20;;;;;;;9.77;91.13;99721.55;446855;1241;140077;-60
2024/04/06 23:18:11;;;;;;;31.90;22.00;;;;;;;9.74;91.51;99734.30;446737;1241;139750;-61
2024/04/06 23:28:17;;;;;;;28.40;20.90;;;;;;;9.64;91.30;99744.66;446553;1240;139960;-61
2024/04/06 23:38:20;;;;;;;26.60;19.70;;;;;;;9.50;91.41;99742.47;446640;1241;139954;-60
2024/04/06 23:48:24;;;;;;;30.90;22.30;;;;;;;9.41;92.46;99753.66;447165;1241;139496;-58
2024/04/06 23:58:27;;;;;;;27.00;20.50;;;;;;;9.32;92.56;99762.05;446713;1241;140412;-58
